sensor_id;sensor_type;location;lat;lon;timestamp;temperature;humidity
51841;DHT22;37888;53.246;6.658;2023-11-21T00:01:25;9.20;99.90
51841;DHT22;37888;53.246;6.658;2023-11-21T00:04:01;8.80;99.90
51841;DHT22;37888;53.246;6.658;2023-11-21T00:09:13;9.00;99.90
51841;DHT22;37888;53.246;6.658;2023-11-21T00:11:41;9.20;99.90
51841;DHT22;37888;53.246;6.658;2023-11-21T00:14:12;9.10;99.90
51841;DHT22;37888;53.246;6.658;2023-11-21T00:16:41;11.00;99.90
51841;DHT22;37888;53.246;6.658;2023-11-21T00:19:07;9.30;99.90
51841;DHT22;37888;53.246;6.658;2023-11-21T00:21:48;9.40;99.90
51841;DHT22;37888;53.246;6.658;2023-11-21T00:24:14;10.70;99.90
51841;DHT22;37888;53.246;6.658;2023-11-21T00:26:40;9.30;99.90
51841;DHT22;37888;53.246;6.658;2023-11-21T00:29:06;9.30;99.90
51841;DHT22;37888;53.246;6.658;2023-11-21T00:31:36;8.60;99.90
51841;DHT22;37888;53.246;6.658;2023-11-21T00:34:04;9.20;99.90
51841;DHT22;37888;53.246;6.658;2023-11-21T00:36:31;8.50;99.90
51841;DHT22;37888;53.246;6.658;2023-11-21T00:39:00;10.40;99.90
51841;DHT22;37888;53.246;6.658;2023-11-21T00:41:29;9.20;99.90
51841;DHT22;37888;53.246;6.658;2023-11-21T00:43:55;9.10;99.90
51841;DHT22;37888;53.246;6.658;2023-11-21T00:46:31;8.80;99.90
51841;DHT22;37888;53.246;6.658;2023-11-21T00:48:57;9.10;99.90
51841;DHT22;37888;53.246;6.658;2023-11-21T00:51:38;9.10;99.90
51841;DHT22;37888;53.246;6.658;2023-11-21T00:54:07;8.40;99.90
51841;DHT22;37888;53.246;6.658;2023-11-21T00:56:36;9.20;99.90
51841;DHT22;37888;53.246;6.658;2023-11-21T00:59:02;9.40;99.90
51841;DHT22;37888;53.246;6.658;2023-11-21T01:01:30;9.20;99.90
51841;DHT22;37888;53.246;6.658;2023-11-21T01:03:57;9.10;99.90
51841;DHT22;37888;53.246;6.658;2023-11-21T01:06:23;8.70;99.90
51841;DHT22;37888;53.246;6.658;2023-11-21T01:08:52;8.70;99.90
51841;DHT22;37888;53.246;6.658;2023-11-21T01:11:21;8.50;99.90
51841;DHT22;37888;53.246;6.658;2023-11-21T01:13:50;9.20;99.90
51841;DHT22;37888;53.246;6.658;2023-11-21T01:16:16;8.30;99.90
51841;DHT22;37888;53.246;6.658;2023-11-21T01:18:44;9.30;99.90
51841;DHT22;37888;53.246;6.658;2023-11-21T01:21:10;8.40;99.90
51841;DHT22;37888;53.246;6.658;2023-11-21T01:23:38;9.30;99.90
51841;DHT22;37888;53.246;6.658;2023-11-21T01:26:06;9.20;99.90
51841;DHT22;37888;53.246;6.658;2023-11-21T01:28:34;8.30;99.90
51841;DHT22;37888;53.246;6.658;2023-11-21T01:31:02;8.90;99.90
51841;DHT22;37888;53.246;6.658;2023-11-21T01:33:32;9.20;99.90
51841;DHT22;37888;53.246;6.658;2023-11-21T01:35:58;9.30;99.90
51841;DHT22;37888;53.246;6.658;2023-11-21T01:38:25;9.20;99.90
51841;DHT22;37888;53.246;6.658;2023-11-21T01:40:55;9.10;99.90
51841;DHT22;37888;53.246;6.658;2023-11-21T01:43:24;9.20;99.90
51841;DHT22;37888;53.246;6.658;2023-11-21T01:45:50;9.20;99.90
51841;DHT22;37888;53.246;6.658;2023-11-21T01:48:19;9.10;99.90
51841;DHT22;37888;53.246;6.658;2023-11-21T01:50:47;9.20;99.90
51841;DHT22;37888;53.246;6.658;2023-11-21T01:53:18;8.80;99.90
51841;DHT22;37888;53.246;6.658;2023-11-21T01:55:47;9.20;99.90
51841;DHT22;37888;53.246;6.658;2023-11-21T01:58:13;8.30;99.90
51841;DHT22;37888;53.246;6.658;2023-11-21T02:00:39;9.20;99.90
51841;DHT22;37888;53.246;6.658;2023-11-21T02:03:05;10.30;99.90
51841;DHT22;37888;53.246;6.658;2023-11-21T02:05:32;9.20;99.90
51841;DHT22;37888;53.246;6.658;2023-11-21T02:07:58;8.60;99.90
51841;DHT22;37888;53.246;6.658;2023-11-21T02:10:27;9.50;99.90
51841;DHT22;37888;53.246;6.658;2023-11-21T02:13:00;9.70;99.90
51841;DHT22;37888;53.246;6.658;2023-11-21T02:15:28;9.20;99.90
51841;DHT22;37888;53.246;6.658;2023-11-21T02:17:54;9.20;99.90
51841;DHT22;37888;53.246;6.658;2023-11-21T02:20:23;9.10;99.90
51841;DHT22;37888;53.246;6.658;2023-11-21T02:22:50;9.20;99.90
51841;DHT22;37888;53.246;6.658;2023-11-21T02:25:26;9.20;99.90
51841;DHT22;37888;53.246;6.658;2023-11-21T02:27:55;8.20;99.90
51841;DHT22;37888;53.246;6.658;2023-11-21T02:30:21;8.60;99.90
51841;DHT22;37888;53.246;6.658;2023-11-21T02:32:50;9.10;99.90
51841;DHT22;37888;53.246;6.658;2023-11-21T02:35:21;9.10;99.90
51841;DHT22;37888;53.246;6.658;2023-11-21T02:37:50;8.30;99.90
51841;DHT22;37888;53.246;6.658;2023-11-21T02:40:18;9.30;99.90
51841;DHT22;37888;53.246;6.658;2023-11-21T02:42:49;9.20;99.90
51841;DHT22;37888;53.246;6.658;2023-11-21T02:45:17;9.60;99.90
51841;DHT22;37888;53.246;6.658;2023-11-21T02:47:46;9.20;99.90
51841;DHT22;37888;53.246;6.658;2023-11-21T02:50:13;9.20;99.90
51841;DHT22;37888;53.246;6.658;2023-11-21T02:52:39;8.80;99.90
51841;DHT22;37888;53.246;6.658;2023-11-21T02:55:07;9.10;99.90
51841;DHT22;37888;53.246;6.658;2023-11-21T02:57:33;9.20;99.90
51841;DHT22;37888;53.246;6.658;2023-11-21T02:59:59;9.10;99.90
51841;DHT22;37888;53.246;6.658;2023-11-21T03:02:25;7.90;99.90
51841;DHT22;37888;53.246;6.658;2023-11-21T03:04:52;9.20;99.90
51841;DHT22;37888;53.246;6.658;2023-11-21T03:07:18;9.10;99.90
51841;DHT22;37888;53.246;6.658;2023-11-21T03:09:47;9.10;99.90
51841;DHT22;37888;53.246;6.658;2023-11-21T03:12:17;9.40;99.90
51841;DHT22;37888;53.246;6.658;2023-11-21T03:14:43;9.10;99.90
51841;DHT22;37888;53.246;6.658;2023-11-21T03:17:09;9.00;99.90
51841;DHT22;37888;53.246;6.658;2023-11-21T03:19:35;9.10;99.90
51841;DHT22;37888;53.246;6.658;2023-11-21T03:22:01;9.00;99.90
51841;DHT22;37888;53.246;6.658;2023-11-21T03:24:27;9.10;99.90
51841;DHT22;37888;53.246;6.658;2023-11-21T03:26:53;9.10;99.90
51841;DHT22;37888;53.246;6.658;2023-11-21T03:29:19;9.00;99.90
51841;DHT22;37888;53.246;6.658;2023-11-21T03:31:44;9.10;99.90
51841;DHT22;37888;53.246;6.658;2023-11-21T03:34:15;9.10;99.90
51841;DHT22;37888;53.246;6.658;2023-11-21T03:36:40;9.00;99.90
51841;DHT22;37888;53.246;6.658;2023-11-21T03:39:07;9.10;99.90
51841;DHT22;37888;53.246;6.658;2023-11-21T03:41:33;9.90;99.90
51841;DHT22;37888;53.246;6.658;2023-11-21T03:43:59;9.40;99.90
51841;DHT22;37888;53.246;6.658;2023-11-21T03:46:25;8.90;99.90
51841;DHT22;37888;53.246;6.658;2023-11-21T03:48:51;9.70;99.90
51841;DHT22;37888;53.246;6.658;2023-11-21T03:51:17;8.90;99.90
51841;DHT22;37888;53.246;6.658;2023-11-21T03:53:43;8.90;99.90
51841;DHT22;37888;53.246;6.658;2023-11-21T03:56:09;8.90;99.90
51841;DHT22;37888;53.246;6.658;2023-11-21T03:58:35;9.40;99.90
51841;DHT22;37888;53.246;6.658;2023-11-21T04:01:04;8.90;99.90
51841;DHT22;37888;53.246;6.658;2023-11-21T04:03:31;9.60;99.90
51841;DHT22;37888;53.246;6.658;2023-11-21T04:06:00;8.90;99.90
51841;DHT22;37888;53.246;6.658;2023-11-21T04:08:32;8.90;99.90
51841;DHT22;37888;53.246;6.658;2023-11-21T04:10:59;8.80;99.90
51841;DHT22;37888;53.246;6.658;2023-11-21T04:13:25;7.80;99.90
51841;DHT22;37888;53.246;6.658;2023-11-21T04:15:51;8.90;99.90
51841;DHT22;37888;53.246;6.658;2023-11-21T04:18:16;8.90;99.90
51841;DHT22;37888;53.246;6.658;2023-11-21T04:20:42;8.90;99.90
51841;DHT22;37888;53.246;6.658;2023-11-21T04:23:08;8.90;99.90
51841;DHT22;37888;53.246;6.658;2023-11-21T04:25:35;8.90;99.90
51841;DHT22;37888;53.246;6.658;2023-11-21T04:28:01;7.80;99.90
51841;DHT22;37888;53.246;6.658;2023-11-21T04:30:27;8.80;99.90
51841;DHT22;37888;53.246;6.658;2023-11-21T04:32:52;8.80;99.90
51841;DHT22;37888;53.246;6.658;2023-11-21T04:35:18;8.80;99.90
51841;DHT22;37888;53.246;6.658;2023-11-21T04:37:44;8.80;99.90
51841;DHT22;37888;53.246;6.658;2023-11-21T04:40:10;8.90;99.90
51841;DHT22;37888;53.246;6.658;2023-11-21T04:42:36;8.60;99.90
51841;DHT22;37888;53.246;6.658;2023-11-21T04:45:03;8.90;99.90
51841;DHT22;37888;53.246;6.658;2023-11-21T04:47:33;8.90;99.90
51841;DHT22;37888;53.246;6.658;2023-11-21T04:49:59;9.00;99.90
51841;DHT22;37888;53.246;6.658;2023-11-21T04:52:25;8.90;99.90
51841;DHT22;37888;53.246;6.658;2023-11-21T04:54:51;9.30;99.90
51841;DHT22;37888;53.246;6.658;2023-11-21T04:57:20;8.80;99.90
51841;DHT22;37888;53.246;6.658;2023-11-21T04:59:46;9.00;99.90
51841;DHT22;37888;53.246;6.658;2023-11-21T05:02:11;8.60;99.90
51841;DHT22;37888;53.246;6.658;2023-11-21T05:04:37;8.90;99.90
51841;DHT22;37888;53.246;6.658;2023-11-21T05:07:03;9.00;99.90
51841;DHT22;37888;53.246;6.658;2023-11-21T05:09:29;8.30;99.90
51841;DHT22;37888;53.246;6.658;2023-11-21T05:11:59;9.90;99.90
51841;DHT22;37888;53.246;6.658;2023-11-21T05:14:25;9.00;99.90
51841;DHT22;37888;53.246;6.658;2023-11-21T05:16:51;9.00;99.90
51841;DHT22;37888;53.246;6.658;2023-11-21T05:19:17;8.90;99.90
51841;DHT22;37888;53.246;6.658;2023-11-21T05:21:43;9.00;99.90
51841;DHT22;37888;53.246;6.658;2023-11-21T05:24:09;8.90;99.90
51841;DHT22;37888;53.246;6.658;2023-11-21T05:26:35;8.50;99.90
51841;DHT22;37888;53.246;6.658;2023-11-21T05:29:01;9.00;99.90
51841;DHT22;37888;53.246;6.658;2023-11-21T05:31:26;9.00;99.90
51841;DHT22;37888;53.246;6.658;2023-11-21T05:33:52;8.90;99.90
51841;DHT22;37888;53.246;6.658;2023-11-21T05:36:18;9.30;99.90
51841;DHT22;37888;53.246;6.658;2023-11-21T05:38:44;9.00;99.90
51841;DHT22;37888;53.246;6.658;2023-11-21T05:41:09;9.00;99.90
51841;DHT22;37888;53.246;6.658;2023-11-21T05:43:39;9.00;99.90
51841;DHT22;37888;53.246;6.658;2023-11-21T05:46:05;9.00;99.90
51841;DHT22;37888;53.246;6.658;2023-11-21T05:48:32;9.00;99.90
51841;DHT22;37888;53.246;6.658;2023-11-21T05:50:58;9.00;99.90
51841;DHT22;37888;53.246;6.658;2023-11-21T05:53:24;9.00;99.90
51841;DHT22;37888;53.246;6.658;2023-11-21T05:55:50;9.00;99.90
51841;DHT22;37888;53.246;6.658;2023-11-21T05:58:15;9.00;99.90
51841;DHT22;37888;53.246;6.658;2023-11-21T06:00:41;9.00;99.90
51841;DHT22;37888;53.246;6.658;2023-11-21T06:03:07;8.90;99.90
51841;DHT22;37888;53.246;6.658;2023-11-21T06:05:33;8.80;99.90
51841;DHT22;37888;53.246;6.658;2023-11-21T06:07:59;8.80;99.90
51841;DHT22;37888;53.246;6.658;2023-11-21T06:10:26;8.90;99.90
51841;DHT22;37888;53.246;6.658;2023-11-21T06:12:52;8.80;99.90
51841;DHT22;37888;53.246;6.658;2023-11-21T06:15:18;8.80;99.90
51841;DHT22;37888;53.246;6.658;2023-11-21T06:17:48;7.80;99.90
51841;DHT22;37888;53.246;6.658;2023-11-21T06:20:20;8.70;99.90
51841;DHT22;37888;53.246;6.658;2023-11-21T06:22:48;8.70;99.90
51841;DHT22;37888;53.246;6.658;2023-11-21T06:25:14;8.80;99.90
51841;DHT22;37888;53.246;6.658;2023-11-21T06:27:41;8.70;99.90
51841;DHT22;37888;53.246;6.658;2023-11-21T06:30:07;8.80;99.90
51841;DHT22;37888;53.246;6.658;2023-11-21T06:32:34;8.60;99.90
51841;DHT22;37888;53.246;6.658;2023-11-21T06:35:01;8.60;99.90
51841;DHT22;37888;53.246;6.658;2023-11-21T06:37:28;8.60;99.90
51841;DHT22;37888;53.246;6.658;2023-11-21T06:42:22;8.50;99.90
51841;DHT22;37888;53.246;6.658;2023-11-21T06:44:48;8.50;99.90
51841;DHT22;37888;53.246;6.658;2023-11-21T06:47:14;8.40;99.90
51841;DHT22;37888;53.246;6.658;2023-11-21T06:49:41;8.50;99.90
51841;DHT22;37888;53.246;6.658;2023-11-21T06:52:06;8.70;99.90
51841;DHT22;37888;53.246;6.658;2023-11-21T06:54:33;8.50;99.90
51841;DHT22;37888;53.246;6.658;2023-11-21T06:57:00;8.50;99.90
51841;DHT22;37888;53.246;6.658;2023-11-21T06:59:26;8.00;99.90
51841;DHT22;37888;53.246;6.658;2023-11-21T07:01:53;8.40;99.90
51841;DHT22;37888;53.246;6.658;2023-11-21T07:04:19;8.40;99.90
51841;DHT22;37888;53.246;6.658;2023-11-21T07:06:45;8.40;99.90
51841;DHT22;37888;53.246;6.658;2023-11-21T07:09:11;8.30;99.90
51841;DHT22;37888;53.246;6.658;2023-11-21T07:11:37;8.30;99.90
51841;DHT22;37888;53.246;6.658;2023-11-21T07:14:06;8.50;99.90
51841;DHT22;37888;53.246;6.658;2023-11-21T07:16:34;8.30;99.90
51841;DHT22;37888;53.246;6.658;2023-11-21T07:19:00;8.30;99.90
51841;DHT22;37888;53.246;6.658;2023-11-21T07:21:26;8.30;99.90
51841;DHT22;37888;53.246;6.658;2023-11-21T07:23:52;8.30;99.90
51841;DHT22;37888;53.246;6.658;2023-11-21T07:26:17;8.20;99.90
51841;DHT22;37888;53.246;6.658;2023-11-21T07:28:43;8.30;99.90
51841;DHT22;37888;53.246;6.658;2023-11-21T07:31:09;8.20;99.90
51841;DHT22;37888;53.246;6.658;2023-11-21T07:33:34;8.30;99.90
51841;DHT22;37888;53.246;6.658;2023-11-21T07:36:00;8.70;99.90
51841;DHT22;37888;53.246;6.658;2023-11-21T07:38:26;8.20;99.90
51841;DHT22;37888;53.246;6.658;2023-11-21T07:40:53;8.20;99.90
51841;DHT22;37888;53.246;6.658;2023-11-21T07:43:19;8.30;99.90
51841;DHT22;37888;53.246;6.658;2023-11-21T07:45:45;8.20;99.90
51841;DHT22;37888;53.246;6.658;2023-11-21T07:48:14;8.20;99.90
51841;DHT22;37888;53.246;6.658;2023-11-21T07:50:40;8.20;99.90
51841;DHT22;37888;53.246;6.658;2023-11-21T07:53:05;8.70;99.90
51841;DHT22;37888;53.246;6.658;2023-11-21T07:55:31;8.20;99.90
51841;DHT22;37888;53.246;6.658;2023-11-21T07:57:57;8.20;99.90
51841;DHT22;37888;53.246;6.658;2023-11-21T08:00:23;8.20;99.90
51841;DHT22;37888;53.246;6.658;2023-11-21T08:02:49;8.30;99.90
51841;DHT22;37888;53.246;6.658;2023-11-21T08:05:16;8.30;99.90
51841;DHT22;37888;53.246;6.658;2023-11-21T08:07:41;8.30;99.90
51841;DHT22;37888;53.246;6.658;2023-11-21T08:10:07;8.30;99.90
51841;DHT22;37888;53.246;6.658;2023-11-21T08:12:35;7.70;99.90
51841;DHT22;37888;53.246;6.658;2023-11-21T08:15:01;8.40;99.90
51841;DHT22;37888;53.246;6.658;2023-11-21T08:17:28;8.40;99.90
51841;DHT22;37888;53.246;6.658;2023-11-21T08:19:55;8.40;99.90
51841;DHT22;37888;53.246;6.658;2023-11-21T08:22:20;8.40;99.90
51841;DHT22;37888;53.246;6.658;2023-11-21T08:24:46;8.50;99.90
51841;DHT22;37888;53.246;6.658;2023-11-21T08:27:12;7.00;99.90
51841;DHT22;37888;53.246;6.658;2023-11-21T08:29:41;8.40;99.90
51841;DHT22;37888;53.246;6.658;2023-11-21T08:32:07;8.40;99.90
51841;DHT22;37888;53.246;6.658;2023-11-21T08:34:33;8.30;99.90
51841;DHT22;37888;53.246;6.658;2023-11-21T08:36:58;7.90;99.90
51841;DHT22;37888;53.246;6.658;2023-11-21T08:39:24;7.90;99.90
51841;DHT22;37888;53.246;6.658;2023-11-21T08:41:50;7.80;99.90
51841;DHT22;37888;53.246;6.658;2023-11-21T08:44:16;8.20;99.90
51841;DHT22;37888;53.246;6.658;2023-11-21T08:46:46;8.20;99.90
51841;DHT22;37888;53.246;6.658;2023-11-21T08:49:12;7.60;99.90
51841;DHT22;37888;53.246;6.658;2023-11-21T08:51:38;8.10;99.90
51841;DHT22;37888;53.246;6.658;2023-11-21T08:54:07;8.10;99.90
51841;DHT22;37888;53.246;6.658;2023-11-21T08:56:37;8.80;99.90
51841;DHT22;37888;53.246;6.658;2023-11-21T08:59:03;8.00;99.90
51841;DHT22;37888;53.246;6.658;2023-11-21T09:01:29;8.00;99.90
51841;DHT22;37888;53.246;6.658;2023-11-21T09:03:57;8.00;99.90
51841;DHT22;37888;53.246;6.658;2023-11-21T09:06:23;8.20;99.90
51841;DHT22;37888;53.246;6.658;2023-11-21T09:08:49;7.90;99.90
51841;DHT22;37888;53.246;6.658;2023-11-21T09:11:15;7.90;99.90
51841;DHT22;37888;53.246;6.658;2023-11-21T09:13:40;7.90;99.90
51841;DHT22;37888;53.246;6.658;2023-11-21T09:16:06;8.00;99.90
51841;DHT22;37888;53.246;6.658;2023-11-21T09:18:32;7.90;99.90
51841;DHT22;37888;53.246;6.658;2023-11-21T09:20:58;7.90;99.90
51841;DHT22;37888;53.246;6.658;2023-11-21T09:23:24;7.50;99.90
51841;DHT22;37888;53.246;6.658;2023-11-21T09:25:49;8.00;99.90
51841;DHT22;37888;53.246;6.658;2023-11-21T09:28:17;8.00;99.90
51841;DHT22;37888;53.246;6.658;2023-11-21T09:30:43;8.00;99.90
51841;DHT22;37888;53.246;6.658;2023-11-21T09:33:09;8.10;99.90
51841;DHT22;37888;53.246;6.658;2023-11-21T09:35:39;8.20;99.90
51841;DHT22;37888;53.246;6.658;2023-11-21T09:38:04;8.20;99.90
51841;DHT22;37888;53.246;6.658;2023-11-21T09:40:35;8.10;99.90
51841;DHT22;37888;53.246;6.658;2023-11-21T09:43:06;8.20;99.90
51841;DHT22;37888;53.246;6.658;2023-11-21T09:45:36;8.20;99.90
51841;DHT22;37888;53.246;6.658;2023-11-21T09:48:04;8.20;99.90
51841;DHT22;37888;53.246;6.658;2023-11-21T09:50:31;9.40;99.90
51841;DHT22;37888;53.246;6.658;2023-11-21T09:55:26;7.80;99.90
51841;DHT22;37888;53.246;6.658;2023-11-21T09:57:55;7.80;99.90
51841;DHT22;37888;53.246;6.658;2023-11-21T10:00:22;8.30;99.90
51841;DHT22;37888;53.246;6.658;2023-11-21T10:02:52;8.20;99.90
51841;DHT22;37888;53.246;6.658;2023-11-21T10:05:18;8.10;99.90
51841;DHT22;37888;53.246;6.658;2023-11-21T10:07:48;8.20;99.90
51841;DHT22;37888;53.246;6.658;2023-11-21T10:10:14;8.10;99.90
51841;DHT22;37888;53.246;6.658;2023-11-21T10:12:43;8.20;99.90
51841;DHT22;37888;53.246;6.658;2023-11-21T10:15:11;8.20;99.90
51841;DHT22;37888;53.246;6.658;2023-11-21T10:17:37;8.60;99.90
51841;DHT22;37888;53.246;6.658;2023-11-21T10:20:09;8.10;99.90
51841;DHT22;37888;53.246;6.658;2023-11-21T10:22:40;8.00;99.90
51841;DHT22;37888;53.246;6.658;2023-11-21T10:25:09;8.00;99.90
51841;DHT22;37888;53.246;6.658;2023-11-21T10:27:36;8.00;99.90
51841;DHT22;37888;53.246;6.658;2023-11-21T10:30:02;7.90;99.90
51841;DHT22;37888;53.246;6.658;2023-11-21T10:32:29;7.90;99.90
51841;DHT22;37888;53.246;6.658;2023-11-21T10:35:01;7.90;99.90
51841;DHT22;37888;53.246;6.658;2023-11-21T10:37:34;8.10;99.90
51841;DHT22;37888;53.246;6.658;2023-11-21T10:40:01;7.50;99.90
51841;DHT22;37888;53.246;6.658;2023-11-21T10:42:26;7.90;99.90
51841;DHT22;37888;53.246;6.658;2023-11-21T10:44:53;8.20;99.90
51841;DHT22;37888;53.246;6.658;2023-11-21T10:47:19;7.90;99.90
51841;DHT22;37888;53.246;6.658;2023-11-21T10:49:48;7.90;99.90
51841;DHT22;37888;53.246;6.658;2023-11-21T10:52:13;6.40;99.90
51841;DHT22;37888;53.246;6.658;2023-11-21T10:54:43;8.20;99.90
51841;DHT22;37888;53.246;6.658;2023-11-21T10:57:09;7.90;99.90
51841;DHT22;37888;53.246;6.658;2023-11-21T10:59:35;7.90;99.90
51841;DHT22;37888;53.246;6.658;2023-11-21T11:02:01;7.90;99.90
51841;DHT22;37888;53.246;6.658;2023-11-21T11:04:31;8.20;99.90
51841;DHT22;37888;53.246;6.658;2023-11-21T11:06:57;8.20;99.90
51841;DHT22;37888;53.246;6.658;2023-11-21T11:09:23;8.00;99.90
51841;DHT22;37888;53.246;6.658;2023-11-21T11:11:50;8.00;99.90
51841;DHT22;37888;53.246;6.658;2023-11-21T11:14:16;8.00;99.90
51841;DHT22;37888;53.246;6.658;2023-11-21T11:16:44;8.20;99.90
51841;DHT22;37888;53.246;6.658;2023-11-21T11:19:10;8.00;99.90
51841;DHT22;37888;53.246;6.658;2023-11-21T11:26:47;8.10;99.90
51841;DHT22;37888;53.246;6.658;2023-11-21T11:31:55;8.30;99.90
51841;DHT22;37888;53.246;6.658;2023-11-21T11:34:31;8.20;99.90
51841;DHT22;37888;53.246;6.658;2023-11-21T11:37:00;8.40;99.90
51841;DHT22;37888;53.246;6.658;2023-11-21T11:39:29;8.30;99.90
51841;DHT22;37888;53.246;6.658;2023-11-21T11:41:56;8.70;99.90
51841;DHT22;37888;53.246;6.658;2023-11-21T11:47:31;8.40;99.90
51841;DHT22;37888;53.246;6.658;2023-11-21T11:50:06;8.50;99.90
51841;DHT22;37888;53.246;6.658;2023-11-21T11:52:37;8.50;99.90
51841;DHT22;37888;53.246;6.658;2023-11-21T11:55:16;8.50;99.90
51841;DHT22;37888;53.246;6.658;2023-11-21T11:57:49;8.50;99.90
51841;DHT22;37888;53.246;6.658;2023-11-21T12:02:48;8.50;99.90
51841;DHT22;37888;53.246;6.658;2023-11-21T12:05:18;8.70;99.90
51841;DHT22;37888;53.246;6.658;2023-11-21T12:07:44;8.50;99.90
51841;DHT22;37888;53.246;6.658;2023-11-21T12:10:17;7.80;99.90
51841;DHT22;37888;53.246;6.658;2023-11-21T12:12:47;8.60;99.90
51841;DHT22;37888;53.246;6.658;2023-11-21T12:15:13;8.40;99.90
51841;DHT22;37888;53.246;6.658;2023-11-21T12:17:39;8.40;99.90
51841;DHT22;37888;53.246;6.658;2023-11-21T12:20:05;8.40;99.90
51841;DHT22;37888;53.246;6.658;2023-11-21T12:22:41;8.50;99.90
51841;DHT22;37888;53.246;6.658;2023-11-21T12:25:07;8.80;99.90
51841;DHT22;37888;53.246;6.658;2023-11-21T12:27:33;8.50;99.90
51841;DHT22;37888;53.246;6.658;2023-11-21T12:29:59;8.60;99.90
51841;DHT22;37888;53.246;6.658;2023-11-21T12:32:24;9.00;99.90
51841;DHT22;37888;53.246;6.658;2023-11-21T12:34:51;9.00;99.90
51841;DHT22;37888;53.246;6.658;2023-11-21T12:37:16;9.00;99.90
51841;DHT22;37888;53.246;6.658;2023-11-21T12:39:43;8.80;99.90
51841;DHT22;37888;53.246;6.658;2023-11-21T12:42:08;7.60;99.90
51841;DHT22;37888;53.246;6.658;2023-11-21T12:44:35;8.90;99.90
51841;DHT22;37888;53.246;6.658;2023-11-21T12:47:01;8.80;99.90
51841;DHT22;37888;53.246;6.658;2023-11-21T12:49:27;8.70;99.90
51841;DHT22;37888;53.246;6.658;2023-11-21T12:51:53;8.70;99.90
51841;DHT22;37888;53.246;6.658;2023-11-21T12:54:19;8.70;99.90
51841;DHT22;37888;53.246;6.658;2023-11-21T12:56:45;8.60;99.90
51841;DHT22;37888;53.246;6.658;2023-11-21T12:59:15;8.60;99.90
51841;DHT22;37888;53.246;6.658;2023-11-21T13:01:44;8.70;99.90
51841;DHT22;37888;53.246;6.658;2023-11-21T13:04:11;8.60;99.90
51841;DHT22;37888;53.246;6.658;2023-11-21T13:06:37;8.60;99.90
51841;DHT22;37888;53.246;6.658;2023-11-21T13:09:09;8.60;99.90
51841;DHT22;37888;53.246;6.658;2023-11-21T13:11:43;8.60;99.90
51841;DHT22;37888;53.246;6.658;2023-11-21T13:14:10;9.80;99.90
51841;DHT22;37888;53.246;6.658;2023-11-21T13:16:36;8.60;99.90
51841;DHT22;37888;53.246;6.658;2023-11-21T13:19:04;8.50;99.90
51841;DHT22;37888;53.246;6.658;2023-11-21T13:21:30;8.40;99.90
51841;DHT22;37888;53.246;6.658;2023-11-21T13:23:56;8.30;99.90
51841;DHT22;37888;53.246;6.658;2023-11-21T13:26:21;7.10;99.90
51841;DHT22;37888;53.246;6.658;2023-11-21T13:28:49;8.30;99.90
51841;DHT22;37888;53.246;6.658;2023-11-21T13:31:16;7.80;99.90
51841;DHT22;37888;53.246;6.658;2023-11-21T13:33:52;8.40;99.90
51841;DHT22;37888;53.246;6.658;2023-11-21T13:36:22;8.30;99.90
51841;DHT22;37888;53.246;6.658;2023-11-21T13:38:49;8.30;99.90
51841;DHT22;37888;53.246;6.658;2023-11-21T13:41:15;8.30;99.90
51841;DHT22;37888;53.246;6.658;2023-11-21T13:43:40;8.40;99.90
51841;DHT22;37888;53.246;6.658;2023-11-21T13:48:42;8.20;99.90
51841;DHT22;37888;53.246;6.658;2023-11-21T13:51:12;8.30;99.90
51841;DHT22;37888;53.246;6.658;2023-11-21T13:53:43;10.40;99.90
51841;DHT22;37888;53.246;6.658;2023-11-21T13:56:09;8.10;99.90
51841;DHT22;37888;53.246;6.658;2023-11-21T14:56:19;7.90;99.90
51841;DHT22;37888;53.246;6.658;2023-11-21T14:58:54;8.20;99.90
51841;DHT22;37888;53.246;6.658;2023-11-21T15:01:21;7.80;99.90
51841;DHT22;37888;53.246;6.658;2023-11-21T15:04:02;7.80;99.90
51841;DHT22;37888;53.246;6.658;2023-11-21T15:06:27;7.70;99.90
51841;DHT22;37888;53.246;6.658;2023-11-21T15:08:56;7.70;99.90
51841;DHT22;37888;53.246;6.658;2023-11-21T15:29:06;7.70;99.90
51841;DHT22;37888;53.246;6.658;2023-11-21T15:31:31;7.60;99.90
51841;DHT22;37888;53.246;6.658;2023-11-21T15:33:57;5.50;99.90
51841;DHT22;37888;53.246;6.658;2023-11-21T15:36:28;7.40;99.90
51841;DHT22;37888;53.246;6.658;2023-11-21T15:38:54;7.30;99.90
51841;DHT22;37888;53.246;6.658;2023-11-21T15:46:14;7.20;99.90
51841;DHT22;37888;53.246;6.658;2023-11-21T15:48:40;7.20;99.90
51841;DHT22;37888;53.246;6.658;2023-11-21T15:51:14;6.90;99.90
51841;DHT22;37888;53.246;6.658;2023-11-21T15:53:39;6.90;99.90
51841;DHT22;37888;53.246;6.658;2023-11-21T15:56:05;6.70;99.90
51841;DHT22;37888;53.246;6.658;2023-11-21T15:58:37;6.70;99.90
51841;DHT22;37888;53.246;6.658;2023-11-21T16:01:03;6.50;99.90
51841;DHT22;37888;53.246;6.658;2023-11-21T16:03:29;6.50;99.90
51841;DHT22;37888;53.246;6.658;2023-11-21T16:05:59;7.30;99.90
51841;DHT22;37888;53.246;6.658;2023-11-21T16:08:27;6.10;99.90
51841;DHT22;37888;53.246;6.658;2023-11-21T16:10:53;6.30;99.90
51841;DHT22;37888;53.246;6.658;2023-11-21T16:13:19;6.30;99.90
51841;DHT22;37888;53.246;6.658;2023-11-21T16:15:45;6.30;99.90
51841;DHT22;37888;53.246;6.658;2023-11-21T16:18:11;7.10;99.90
51841;DHT22;37888;53.246;6.658;2023-11-21T16:20:37;5.40;99.90
51841;DHT22;37888;53.246;6.658;2023-11-21T16:23:05;7.40;99.90
51841;DHT22;37888;53.246;6.658;2023-11-21T16:25:31;5.60;99.90
51841;DHT22;37888;53.246;6.658;2023-11-21T16:27:56;5.20;99.90
51841;DHT22;37888;53.246;6.658;2023-11-21T16:30:24;6.40;99.90
51841;DHT22;37888;53.246;6.658;2023-11-21T16:32:51;6.30;99.90
51841;DHT22;37888;53.246;6.658;2023-11-21T16:35:17;6.20;99.90
51841;DHT22;37888;53.246;6.658;2023-11-21T16:37:44;6.20;99.90
51841;DHT22;37888;53.246;6.658;2023-11-21T16:40:13;6.20;99.90
51841;DHT22;37888;53.246;6.658;2023-11-21T16:42:39;7.80;99.90
51841;DHT22;37888;53.246;6.658;2023-11-21T16:45:05;7.30;99.90
51841;DHT22;37888;53.246;6.658;2023-11-21T16:47:31;6.30;99.90
51841;DHT22;37888;53.246;6.658;2023-11-21T16:49:58;6.20;99.90
51841;DHT22;37888;53.246;6.658;2023-11-21T16:52:24;6.30;99.90
51841;DHT22;37888;53.246;6.658;2023-11-21T16:54:50;6.30;99.90
51841;DHT22;37888;53.246;6.658;2023-11-21T16:57:16;6.30;99.90
51841;DHT22;37888;53.246;6.658;2023-11-21T16:59:42;6.40;99.90
51841;DHT22;37888;53.246;6.658;2023-11-21T17:02:07;6.30;99.90
51841;DHT22;37888;53.246;6.658;2023-11-21T17:04:35;4.90;99.90
51841;DHT22;37888;53.246;6.658;2023-11-21T17:07:07;6.20;99.90
51841;DHT22;37888;53.246;6.658;2023-11-21T17:12:00;6.40;99.90
51841;DHT22;37888;53.246;6.658;2023-11-21T17:14:27;5.90;99.90
51841;DHT22;37888;53.246;6.658;2023-11-21T22:01:21;5.20;99.90
51841;DHT22;37888;53.246;6.658;2023-11-21T22:03:50;5.10;99.90
51841;DHT22;37888;53.246;6.658;2023-11-21T22:06:17;4.60;99.90
51841;DHT22;37888;53.246;6.658;2023-11-21T22:08:43;4.90;99.90
51841;DHT22;37888;53.246;6.658;2023-11-21T22:11:09;4.90;99.90
51841;DHT22;37888;53.246;6.658;2023-11-21T22:13:34;4.90;99.90
51841;DHT22;37888;53.246;6.658;2023-11-21T22:16:01;4.90;99.90